Terminal Aerodrome Forecast
Issued by NWS Pocatello, ID

Home | Current Version | Previous Version | Text Only | Print | Product List | Glossary On
Versions: 1 2 3 4 5 6 7 8 9 10 11 12 13 14 15 16
000
FTUS45 KPIH 300520
TAFIDA
TAF
KIDA 300520Z 3006/0106 04010KT P6SM VCTS SCT100CB BKN250
     FM300800 34005KT P6SM SCT250
     FM302100 22012G18KT P6SM VCTS SCT100CB BKN250
     FM010400 03008KT P6SM SCT250=

USA.gov is the U.S. government's official web portal to all federal, state and local government web resources and services.